X  Tanca Dades meteorològiques de l'aviació METAR     KSWO Stillwater Regional Airport
Temperatura
20°C Temperatura
7°C Rosada
43% Humitat



Vent
1 M/S
3 MPH
5 KM/H
3 NUS



90°
E
Condicions actuals

Sense núvols Sense núvols
Pressió 1017.92 (hPa) - 30.06 (inHg)
Visibilitat 10 (milla) - 16.1 (km)
Aeroport
Codi aeroport KSWO

Ubicació: Stillwater Regional Airport
Distància: 4 (km)

Metar:
KSWO 050153Z 09003KT 10SM CLR 20/07 A3006 RMK AO2 SLP171 T02000072

Temps: 10-04-2022 8:53 pm CDT